Time;durP1;ratioP1;P1;durP2;ratioP2;P2;SDS_P1;SDS_P2;PMS_P1;PMS_P2;Temp;Humidity;BMP_temperature;BMP_pressure;BME280_temperature;BME280_humidity;BME280_pressure;Samples;Min_cycle;Max_cycle;Signal;HPM_P1;HPM_P2
2022/12/08 00:01:50;;;;;;;15.60;4.35;;;17.80;47.70;;;;;;5047502;28;20041;-56
2022/12/08 00:04:17;;;;;;;6.38;3.15;;;17.90;47.80;;;;;;5047813;28;20482;-53
2022/12/08 00:09:32;;;;;;;6.65;3.42;;;17.90;47.80;;;;;;5047401;28;20037;-53
2022/12/08 00:12:02;;;;;;;11.32;3.95;;;17.90;47.80;;;;;;5047100;28;20037;-53
2022/12/08 00:14:31;;;;;;;7.13;3.30;;;17.90;47.90;;;;;;5047449;28;20040;-53
2022/12/08 00:16:59;;;;;;;8.13;4.22;;;17.90;48.00;;;;;;5047624;28;20123;-56
2022/12/08 00:19:27;;;;;;;9.32;4.57;;;17.90;47.90;;;;;;5047140;28;20057;-56
2022/12/08 00:21:54;;;;;;;6.05;3.58;;;17.90;48.00;;;;;;5047129;28;20506;-55
2022/12/08 00:24:23;;;;;;;7.32;3.03;;;17.90;48.00;;;;;;5047534;28;20135;-58
2022/12/08 00:26:51;;;;;;;6.72;3.40;;;17.90;48.00;;;;;;5046899;28;20051;-54
2022/12/08 00:29:19;;;;;;;6.03;4.30;;;17.90;48.10;;;;;;5047202;28;20044;-54
2022/12/08 00:31:47;;;;;;;14.23;4.00;;;17.90;48.20;;;;;;5043754;28;20552;-56
2022/12/08 00:34:14;;;;;;;10.32;3.33;;;17.90;48.20;;;;;;5046957;28;20567;-56
2022/12/08 00:36:42;;;;;;;8.88;4.90;;;17.90;48.30;;;;;;5046669;28;20083;-58
2022/12/08 00:39:09;;;;;;;7.35;3.75;;;17.90;48.30;;;;;;5046448;28;20049;-56
2022/12/08 00:44:22;;;;;;;3.95;2.50;;;17.90;48.60;;;;;;5047022;28;20129;-57
2022/12/08 00:46:49;;;;;;;6.45;3.95;;;17.90;48.70;;;;;;5046864;28;20124;-55
2022/12/08 00:49:17;;;;;;;3.38;3.05;;;17.90;48.80;;;;;;5047313;28;20214;-56
2022/12/08 00:51:44;;;;;;;4.20;2.97;;;17.90;48.90;;;;;;5047448;28;20124;-56
2022/12/08 00:54:12;;;;;;;4.22;3.63;;;17.90;49.00;;;;;;5047054;28;20082;-57
2022/12/08 00:56:39;;;;;;;6.43;2.97;;;17.90;49.00;;;;;;5046527;28;20123;-52
2022/12/08 00:59:07;;;;;;;6.90;3.22;;;17.90;48.90;;;;;;5047059;28;20943;-54
2022/12/08 01:01:36;;;;;;;11.05;3.40;;;17.90;48.90;;;;;;5047031;28;20041;-56
2022/12/08 01:04:04;;;;;;;6.35;4.75;;;17.90;49.00;;;;;;5046424;28;20056;-55
2022/12/08 01:06:31;;;;;;;5.65;2.65;;;17.90;49.10;;;;;;5047019;28;20045;-55
2022/12/08 01:08:58;;;;;;;8.07;2.95;;;17.90;49.00;;;;;;5046526;28;20041;-56
2022/12/08 01:11:25;;;;;;;7.75;3.20;;;17.90;49.00;;;;;;5046738;28;20075;-55
2022/12/08 01:13:53;;;;;;;3.90;3.00;;;17.90;49.00;;;;;;5046883;28;20085;-55
2022/12/08 01:16:22;;;;;;;6.35;4.03;;;17.90;49.00;;;;;;5047242;28;20689;-55
2022/12/08 01:18:51;;;;;;;4.18;2.38;;;17.90;49.00;;;;;;5046704;28;20112;-58
2022/12/08 01:21:19;;;;;;;9.43;2.65;;;17.90;49.00;;;;;;5046502;28;20045;-56
2022/12/08 01:23:46;;;;;;;6.95;2.65;;;17.90;49.00;;;;;;5046281;28;20049;-55
2022/12/08 01:26:15;;;;;;;6.80;2.63;;;17.90;48.90;;;;;;5046857;28;20448;-55
2022/12/08 01:28:43;;;;;;;6.07;2.75;;;18.00;49.10;;;;;;5045931;28;20069;-58
2022/12/08 01:31:13;;;;;;;6.80;3.53;;;17.90;49.10;;;;;;5046213;28;20168;-56
2022/12/08 01:33:40;;;;;;;7.68;3.08;;;18.00;49.30;;;;;;5041950;28;20056;-58
2022/12/08 01:36:18;;;;;;;8.90;2.50;;;18.00;49.20;;;;;;5046910;28;20045;-56
2022/12/08 01:38:45;;;;;;;6.63;3.50;;;18.00;49.10;;;;;;5046298;28;20057;-55
2022/12/08 01:41:15;;;;;;;4.18;2.95;;;17.90;49.00;;;;;;5045693;28;20064;-56
2022/12/08 01:43:59;;;;;;;8.63;2.95;;;18.00;49.10;;;;;;5046297;28;20045;-55
2022/12/08 01:46:28;;;;;;;5.03;2.67;;;18.00;49.00;;;;;;5050352;28;20154;-50
2022/12/08 01:49:01;;;;;;;3.67;2.78;;;17.90;49.10;;;;;;5050265;28;20424;-57
2022/12/08 01:51:32;;;;;;;3.38;2.47;;;17.90;49.00;;;;;;5049739;28;20041;-57
2022/12/08 01:53:59;;;;;;;5.38;3.28;;;17.90;49.00;;;;;;5050300;28;20094;-56
2022/12/08 01:56:33;;;;;;;9.05;3.92;;;17.90;49.00;;;;;;5050601;28;20465;-58
2022/12/08 01:59:00;;;;;;;7.70;2.78;;;17.90;48.90;;;;;;5049733;28;20505;-58
2022/12/08 02:01:28;;;;;;;9.50;3.90;;;17.90;48.90;;;;;;5050115;28;20040;-57
2022/12/08 02:03:59;;;;;;;4.20;3.17;;;17.90;48.90;;;;;;5049890;28;20048;-57
2022/12/08 02:06:30;;;;;;;7.03;3.88;;;17.90;48.80;;;;;;5049701;28;20079;-57
2022/12/08 02:08:59;;;;;;;7.05;3.00;;;17.90;48.80;;;;;;5049941;28;20095;-57
2022/12/08 02:11:26;;;;;;;5.45;4.00;;;17.80;48.80;;;;;;5049950;28;20578;-57
2022/12/08 02:13:55;;;;;;;5.18;4.28;;;17.80;48.80;;;;;;5049783;28;20281;-57
2022/12/08 02:16:34;;;;;;;5.18;3.58;;;17.80;48.80;;;;;;5049653;28;20041;-57
2022/12/08 02:19:18;;;;;;;6.18;3.25;;;17.80;48.70;;;;;;5049419;28;20056;-59
2022/12/08 02:21:55;;;;;;;6.45;3.47;;;17.80;48.80;;;;;;5049325;28;20041;-58
2022/12/08 02:24:31;;;;;;;5.05;3.58;;;17.80;48.80;;;;;;5046133;28;20090;-57
2022/12/08 02:27:28;;;;;;;7.57;3.95;;;17.80;48.90;;;;;;5048239;28;20461;-57
2022/12/08 02:30:19;;;;;;;6.20;3.88;;;17.80;48.80;;;;;;5040694;28;20503;-56
2022/12/08 02:33:19;;;;;;;6.72;4.15;;;17.80;48.70;;;;;;5048899;28;20049;-55
2022/12/08 02:35:55;;;;;;;6.35;3.75;;;17.80;48.80;;;;;;5048241;28;20402;-56
2022/12/08 02:38:31;;;;;;;4.72;4.20;;;17.70;48.80;;;;;;5049185;28;20123;-56
2022/12/08 02:41:05;;;;;;;4.15;3.20;;;17.80;48.90;;;;;;5048910;28;20037;-56
2022/12/08 02:43:39;;;;;;;6.20;4.28;;;17.70;48.90;;;;;;5049151;28;20053;-54
2022/12/08 02:46:11;;;;;;;6.20;3.92;;;17.70;48.80;;;;;;5048288;28;20045;-56
2022/12/08 02:48:38;;;;;;;5.50;4.57;;;17.70;48.60;;;;;;5049008;28;20107;-57
2022/12/08 02:51:06;;;;;;;7.10;3.15;;;17.70;48.70;;;;;;5048920;28;20044;-60
2022/12/08 02:53:36;;;;;;;5.32;3.50;;;17.70;48.80;;;;;;5049084;28;20517;-60
2022/12/08 02:56:15;;;;;;;9.20;4.13;;;17.70;48.90;;;;;;5048691;28;20536;-59
2022/12/08 02:59:10;;;;;;;5.70;4.13;;;17.70;48.90;;;;;;5048619;28;20156;-60
2022/12/08 03:02:03;;;;;;;6.40;3.47;;;17.70;48.80;;;;;;5048953;28;20041;-60
2022/12/08 03:04:38;;;;;;;4.97;3.78;;;17.70;48.90;;;;;;5048746;28;20417;-59
2022/12/08 03:07:12;;;;;;;5.63;5.10;;;17.70;48.90;;;;;;5048910;28;20612;-61
2022/12/08 03:09:44;;;;;;;5.47;4.72;;;17.60;48.90;;;;;;5048888;28;20457;-60
2022/12/08 03:12:17;;;;;;;5.15;3.30;;;17.70;49.10;;;;;;5048787;28;20047;-60
2022/12/08 03:14:47;;;;;;;6.20;4.25;;;17.70;49.10;;;;;;5048738;28;20048;-59
2022/12/08 03:17:17;;;;;;;5.80;3.88;;;17.70;49.10;;;;;;5048650;28;20505;-58
2022/12/08 03:19:46;;;;;;;7.53;3.80;;;17.70;49.20;;;;;;5047933;28;20036;-59
2022/12/08 03:22:17;;;;;;;6.70;4.85;;;17.70;49.20;;;;;;5048417;28;20033;-59
2022/12/08 03:24:46;;;;;;;5.95;4.50;;;17.70;49.20;;;;;;5048568;28;20087;-58
2022/12/08 03:27:17;;;;;;;6.22;4.75;;;17.70;49.20;;;;;;5048460;28;20128;-57
2022/12/08 03:29:46;;;;;;;9.55;4.15;;;17.60;49.10;;;;;;5048458;28;20299;-58
2022/12/08 03:32:23;;;;;;;5.53;3.70;;;17.60;49.00;;;;;;5047914;28;20131;-59
2022/12/08 03:34:51;;;;;;;4.57;4.18;;;17.60;49.00;;;;;;5047882;28;20041;-59
2022/12/08 03:37:20;;;;;;;7.75;5.30;;;17.60;49.10;;;;;;5047932;28;20602;-59
2022/12/08 03:39:47;;;;;;;4.80;4.40;;;17.60;49.10;;;;;;5048221;28;20072;-59
2022/12/08 03:42:15;;;;;;;5.75;4.25;;;17.60;49.20;;;;;;5048001;28;20049;-58
2022/12/08 03:44:42;;;;;;;6.35;4.47;;;17.60;49.20;;;;;;5048016;28;20048;-59
2022/12/08 03:47:09;;;;;;;4.30;3.08;;;17.60;49.20;;;;;;5047970;28;20127;-59
2022/12/08 03:49:36;;;;;;;4.65;3.80;;;17.60;49.70;;;;;;5047940;28;20833;-60
2022/12/08 03:52:03;;;;;;;5.25;4.47;;;17.60;49.20;;;;;;5048004;28;20041;-56
2022/12/08 03:54:31;;;;;;;4.95;4.40;;;17.60;49.10;;;;;;5048111;28;20467;-56
2022/12/08 03:56:58;;;;;;;8.00;4.50;;;17.60;49.00;;;;;;5047919;28;20047;-56
2022/12/08 03:59:25;;;;;;;5.70;3.85;;;17.60;49.00;;;;;;5047838;28;20126;-57
2022/12/08 04:01:52;;;;;;;7.18;5.50;;;17.60;49.10;;;;;;5047795;28;20055;-55
2022/12/08 04:04:19;;;;;;;5.03;4.53;;;17.60;49.00;;;;;;5047833;28;20436;-55
2022/12/08 04:06:46;;;;;;;7.07;3.67;;;17.60;48.80;;;;;;5046924;28;20041;-56
2022/12/08 04:09:14;;;;;;;4.32;3.90;;;17.60;48.80;;;;;;5047686;28;20514;-56
2022/12/08 04:11:42;;;;;;;4.93;4.32;;;17.60;48.70;;;;;;5047303;28;20144;-57
2022/12/08 04:14:09;;;;;;;5.07;3.33;;;17.60;48.90;;;;;;5047563;28;20110;-54
2022/12/08 04:16:36;;;;;;;3.72;3.15;;;17.60;48.90;;;;;;5047098;28;20067;-55
2022/12/08 04:19:03;;;;;;;7.97;3.65;;;17.60;48.90;;;;;;5046404;28;20069;-52
2022/12/08 04:21:31;;;;;;;9.38;4.25;;;17.60;48.90;;;;;;5042755;28;20559;-57
2022/12/08 04:23:58;;;;;;;4.55;4.05;;;17.60;48.90;;;;;;5047142;28;20037;-58
2022/12/08 04:26:25;;;;;;;8.02;3.50;;;17.60;48.80;;;;;;5045758;28;20047;-57
2022/12/08 04:28:53;;;;;;;4.03;3.42;;;17.60;49.00;;;;;;5047054;28;20126;-58
2022/12/08 04:31:20;;;;;;;6.45;3.70;;;17.60;48.70;;;;;;5047073;28;20037;-56
2022/12/08 04:33:47;;;;;;;4.03;3.00;;;17.60;48.80;;;;;;5047014;28;20049;-52
2022/12/08 04:36:15;;;;;;;4.20;3.45;;;17.60;48.80;;;;;;5047372;28;20036;-56
2022/12/08 04:38:42;;;;;;;3.58;3.28;;;17.60;48.90;;;;;;5046858;28;20072;-56
2022/12/08 04:41:09;;;;;;;9.25;3.78;;;17.60;48.80;;;;;;5047260;28;20065;-55
2022/12/08 04:43:36;;;;;;;3.47;3.05;;;17.60;48.80;;;;;;5046888;28;20099;-57
2022/12/08 04:46:08;;;;;;;3.58;2.80;;;17.60;48.80;;;;;;5046711;28;20390;-57
2022/12/08 04:48:36;;;;;;;4.88;3.63;;;17.60;48.80;;;;;;5047056;28;20041;-56
2022/12/08 04:51:03;;;;;;;3.65;3.13;;;17.60;48.70;;;;;;5047249;28;20043;-55
2022/12/08 04:53:30;;;;;;;3.20;2.80;;;17.60;48.80;;;;;;5047069;28;20041;-58
2022/12/08 04:55:57;;;;;;;5.22;3.75;;;17.60;48.70;;;;;;5047225;28;20123;-56
2022/12/08 04:58:24;;;;;;;4.20;3.85;;;17.60;48.70;;;;;;5046557;28;20048;-54
2022/12/08 05:00:52;;;;;;;7.50;4.20;;;17.60;48.70;;;;;;5046376;28;20143;-56
2022/12/08 05:03:20;;;;;;;5.93;3.85;;;17.60;48.70;;;;;;5046666;28;20049;-55
2022/12/08 05:05:47;;;;;;;4.45;3.00;;;17.60;48.50;;;;;;5047039;28;20072;-56
2022/12/08 05:08:14;;;;;;;4.63;4.05;;;17.60;48.60;;;;;;5046929;28;20095;-57
2022/12/08 05:10:41;;;;;;;4.30;3.90;;;17.60;48.60;;;;;;5046807;28;20428;-58
2022/12/08 05:13:08;;;;;;;3.58;2.90;;;17.60;48.60;;;;;;5046784;28;20052;-58
2022/12/08 05:15:35;;;;;;;3.58;2.80;;;17.60;48.50;;;;;;5046397;28;20063;-58
2022/12/08 05:18:04;;;;;;;3.72;3.17;;;17.60;48.50;;;;;;5047473;28;20048;-58
2022/12/08 05:20:33;;;;;;;3.70;3.03;;;17.60;48.40;;;;;;5050814;28;20579;-57
2022/12/08 05:23:00;;;;;;;4.85;3.28;;;17.60;48.50;;;;;;5050671;28;20044;-56
2022/12/08 05:25:28;;;;;;;4.65;3.00;;;17.60;48.40;;;;;;5050430;28;20048;-55
2022/12/08 05:27:55;;;;;;;3.38;3.05;;;17.60;48.50;;;;;;5050301;28;20575;-55
2022/12/08 05:30:22;;;;;;;4.40;2.95;;;17.60;48.40;;;;;;5050274;28;20040;-56
2022/12/08 05:32:49;;;;;;;4.70;3.40;;;17.60;48.40;;;;;;5050276;28;20103;-54
2022/12/08 05:35:16;;;;;;;3.50;2.72;;;17.60;48.40;;;;;;5050620;28;20072;-56
2022/12/08 05:37:45;;;;;;;4.82;3.63;;;17.60;48.50;;;;;;5050508;28;20061;-57
2022/12/08 05:40:12;;;;;;;2.47;2.25;;;17.60;48.40;;;;;;5050406;28;20068;-56
2022/12/08 05:42:39;;;;;;;3.22;2.45;;;17.60;48.40;;;;;;5050055;28;20053;-55
2022/12/08 05:45:07;;;;;;;3.00;2.67;;;17.60;48.40;;;;;;5050187;28;20044;-56
2022/12/08 05:47:34;;;;;;;2.45;2.15;;;17.60;48.40;;;;;;5049801;28;20114;-55
2022/12/08 05:50:01;;;;;;;4.72;4.05;;;17.60;48.40;;;;;;5049738;28;20120;-55
2022/12/08 05:52:28;;;;;;;3.33;2.42;;;17.60;48.20;;;;;;5033428;28;20042;-54
2022/12/08 05:54:57;;;;;;;3.22;2.58;;;17.60;48.20;;;;;;5030320;28;20124;-56
2022/12/08 05:57:24;;;;;;;2.40;2.20;;;17.60;48.10;;;;;;5030331;28;20045;-54
2022/12/08 05:59:51;;;;;;;3.67;2.65;;;17.60;48.20;;;;;;5029753;28;20045;-54
2022/12/08 06:02:18;;;;;;;5.65;2.97;;;17.60;48.20;;;;;;5037462;28;20049;-54
2022/12/08 06:04:45;;;;;;;3.13;2.85;;;17.60;48.10;;;;;;5049377;28;20816;-55
2022/12/08 06:07:12;;;;;;;3.03;2.80;;;17.60;48.00;;;;;;5049620;28;20080;-55
2022/12/08 06:09:39;;;;;;;5.63;2.53;;;17.50;47.90;;;;;;5049471;28;20068;-54
2022/12/08 06:12:10;;;;;;;8.98;2.72;;;17.60;47.90;;;;;;5049839;28;20053;-57
2022/12/08 06:14:38;;;;;;;4.38;2.90;;;17.60;48.00;;;;;;5046161;28;20041;-56
2022/12/08 06:17:05;;;;;;;3.83;2.60;;;17.60;47.90;;;;;;5049887;28;20132;-55
2022/12/08 06:19:32;;;;;;;6.65;2.40;;;17.60;47.90;;;;;;5049836;28;20061;-56
2022/12/08 06:21:59;;;;;;;4.10;3.55;;;17.60;48.00;;;;;;5049411;28;20493;-57
2022/12/08 06:24:26;;;;;;;2.13;1.63;;;17.60;47.90;;;;;;5049220;28;20048;-57
2022/12/08 06:26:53;;;;;;;3.25;1.90;;;17.60;47.90;;;;;;5049275;28;20118;-53
2022/12/08 06:29:22;;;;;;;3.35;2.50;;;17.60;48.00;;;;;;5048514;28;20049;-59
2022/12/08 06:31:49;;;;;;;3.05;2.35;;;17.60;48.00;;;;;;5049193;28;20128;-55
2022/12/08 06:34:16;;;;;;;3.22;2.13;;;17.60;48.00;;;;;;5048982;28;20077;-56
2022/12/08 06:36:43;;;;;;;3.40;2.60;;;17.60;48.00;;;;;;5049299;28;20041;-55
2022/12/08 06:39:10;;;;;;;1.77;1.58;;;17.60;47.90;;;;;;5049066;28;20103;-58
2022/12/08 06:42:42;;;;;;;3.55;2.58;;;17.60;47.90;;;;;;5048459;28;20080;-56
2022/12/08 06:44:26;;;;;;;4.88;2.75;;;17.60;47.80;;;;;;5047464;28;20135;-57
2022/12/08 06:46:53;;;;;;;3.28;2.75;;;17.60;47.80;;;;;;5048886;28;20506;-57
2022/12/08 06:49:20;;;;;;;3.80;2.83;;;17.60;47.80;;;;;;5049024;28;20069;-58
2022/12/08 06:51:47;;;;;;;4.50;2.22;;;17.60;47.70;;;;;;5029165;28;20045;-60
2022/12/08 06:54:14;;;;;;;2.25;1.83;;;17.60;47.60;;;;;;5028947;28;20743;-59
2022/12/08 06:56:41;;;;;;;2.97;1.88;;;17.60;47.70;;;;;;5028564;28;20048;-57
2022/12/08 06:59:09;;;;;;;2.88;2.38;;;17.60;47.60;;;;;;5028590;28;20474;-58
2022/12/08 07:01:37;;;;;;;1.27;1.17;;;17.60;47.50;;;;;;5040068;28;20033;-57
2022/12/08 07:04:04;;;;;;;2.92;2.47;;;17.60;47.50;;;;;;5048785;28;20076;-54
2022/12/08 07:06:31;;;;;;;3.60;1.70;;;17.60;47.50;;;;;;5048688;28;20135;-57
2022/12/08 07:08:58;;;;;;;2.95;1.00;;;17.60;47.70;;;;;;5048459;28;20037;-57
2022/12/08 07:11:26;;;;;;;2.47;1.73;;;17.60;47.60;;;;;;5048164;28;20065;-58
2022/12/08 07:13:55;;;;;;;2.92;2.63;;;17.60;47.60;;;;;;5048327;28;20528;-57
2022/12/08 07:16:22;;;;;;;3.38;2.33;;;17.60;47.50;;;;;;5048036;28;20036;-59
2022/12/08 07:18:51;;;;;;;2.55;1.67;;;17.60;47.60;;;;;;5048098;28;20120;-59
2022/12/08 07:21:18;;;;;;;2.67;1.88;;;17.60;47.60;;;;;;5048339;28;20045;-58
2022/12/08 07:23:46;;;;;;;2.08;1.00;;;17.60;47.80;;;;;;5048252;28;20128;-57
2022/12/08 07:26:13;;;;;;;1.75;1.35;;;17.60;47.80;;;;;;5047901;28;20095;-59
2022/12/08 07:28:42;;;;;;;1.65;1.55;;;17.60;47.80;;;;;;5048224;28;20907;-59
2022/12/08 07:31:18;;;;;;;3.47;1.02;;;17.60;47.70;;;;;;5045677;28;20041;-60
2022/12/08 07:33:45;;;;;;;2.03;1.33;;;17.60;47.80;;;;;;5047871;28;20090;-59
2022/12/08 07:36:14;;;;;;;3.25;1.35;;;17.60;47.80;;;;;;5048008;28;20126;-59
2022/12/08 07:38:41;;;;;;;1.83;1.52;;;17.60;47.70;;;;;;5047709;28;20072;-59
2022/12/08 07:41:13;;;;;;;3.08;1.23;;;17.60;47.80;;;;;;5047679;28;20040;-59
2022/12/08 07:43:40;;;;;;;2.08;1.60;;;17.60;47.80;;;;;;5047761;28;20082;-60
2022/12/08 07:46:07;;;;;;;2.35;1.08;;;17.60;47.80;;;;;;5046414;28;20136;-59
2022/12/08 07:48:34;;;;;;;3.15;1.02;;;17.50;47.80;;;;;;5047609;28;20452;-59
2022/12/08 07:51:02;;;;;;;2.72;1.35;;;17.60;47.90;;;;;;5047927;28;20052;-59
2022/12/08 07:53:31;;;;;;;2.58;1.15;;;17.60;48.00;;;;;;5047428;28;20044;-59
2022/12/08 07:55:59;;;;;;;1.05;1.05;;;17.60;48.00;;;;;;5047333;28;20143;-59
2022/12/08 07:58:27;;;;;;;2.60;1.48;;;17.60;48.00;;;;;;5047031;28;20041;-58
2022/12/08 08:00:54;;;;;;;2.70;1.25;;;17.50;48.00;;;;;;5047479;28;20060;-60
2022/12/08 08:03:21;;;;;;;2.95;1.27;;;17.60;48.10;;;;;;5047286;28;20064;-58
2022/12/08 08:05:48;;;;;;;4.63;1.60;;;17.50;48.20;;;;;;5047304;28;20049;-59
2022/12/08 08:08:16;;;;;;;1.90;0.90;;;17.60;48.20;;;;;;5047512;28;20052;-60
2022/12/08 08:10:46;;;;;;;1.85;1.10;;;17.60;48.20;;;;;;5047063;28;20051;-59
2022/12/08 08:13:13;;;;;;;2.50;1.05;;;17.60;48.30;;;;;;5047168;28;20139;-59
2022/12/08 08:15:40;;;;;;;2.05;1.33;;;17.50;48.20;;;;;;5046945;28;20584;-58
2022/12/08 08:18:07;;;;;;;1.60;1.08;;;17.50;48.20;;;;;;5047067;28;20210;-59
2022/12/08 08:20:35;;;;;;;3.47;1.67;;;17.60;48.40;;;;;;5047494;28;20063;-59
2022/12/08 08:23:03;;;;;;;2.15;1.20;;;17.60;48.30;;;;;;5043935;28;20525;-60
2022/12/08 08:25:30;;;;;;;2.70;1.60;;;17.60;48.30;;;;;;5047283;28;20520;-59
2022/12/08 08:27:58;;;;;;;2.05;1.05;;;17.50;48.30;;;;;;5046726;28;20053;-59
2022/12/08 08:30:25;;;;;;;1.30;0.88;;;17.60;48.50;;;;;;5047064;28;20127;-59
2022/12/08 08:32:53;;;;;;;2.42;1.08;;;17.60;48.50;;;;;;5046771;28;20135;-59
2022/12/08 08:35:20;;;;;;;2.20;1.67;;;17.50;48.50;;;;;;5047082;28;20144;-57
2022/12/08 08:37:48;;;;;;;24.95;3.25;;;17.60;48.60;;;;;;5044345;28;20091;-60
2022/12/08 08:40:15;;;;;;;5.47;1.95;;;17.50;48.90;;;;;;5044920;28;20145;-56
2022/12/08 08:42:42;;;;;;;5.28;3.53;;;17.60;48.80;;;;;;5042703;28;20041;-58
2022/12/08 08:45:12;;;;;;;2.92;1.88;;;17.70;48.30;;;;;;5046126;28;20064;-60
2022/12/08 08:47:39;;;;;;;4.95;2.30;;;17.80;47.90;;;;;;5040452;28;20045;-60
2022/12/08 08:50:07;;;;;;;4.75;2.33;;;17.90;47.60;;;;;;5045771;28;20147;-53
2022/12/08 08:52:34;;;;;;;3.60;2.13;;;18.10;47.30;;;;;;5029497;28;20041;-53
2022/12/08 08:55:01;;;;;;;3.40;1.90;;;18.20;46.90;;;;;;5040442;28;20049;-71
2022/12/08 08:57:28;;;;;;;4.85;1.73;;;18.30;46.60;;;;;;5037035;28;20072;-64
2022/12/08 08:59:55;;;;;;;4.57;1.77;;;18.40;46.40;;;;;;5046714;28;20065;-66
2022/12/08 09:02:24;;;;;;;4.47;2.00;;;18.50;46.20;;;;;;5045339;28;20571;-55
2022/12/08 09:04:51;;;;;;;3.45;2.38;;;18.60;46.10;;;;;;5046323;28;20102;-66
2022/12/08 09:07:19;;;;;;;2.75;1.40;;;18.60;45.90;;;;;;5045296;28;20045;-53
2022/12/08 09:09:46;;;;;;;2.40;2.17;;;18.70;45.90;;;;;;5046462;28;20068;-53
2022/12/08 09:12:13;;;;;;;3.60;2.53;;;18.80;45.50;;;;;;5044915;28;20426;-56
2022/12/08 09:14:41;;;;;;;4.38;1.75;;;18.80;45.10;;;;;;5046080;28;20037;-52
2022/12/08 09:17:08;;;;;;;2.75;2.15;;;18.90;44.90;;;;;;5046070;28;20045;-50
2022/12/08 09:19:37;;;;;;;3.80;1.98;;;19.00;44.70;;;;;;5046190;28;20614;-58
2022/12/08 09:22:05;;;;;;;3.50;2.47;;;19.00;44.50;;;;;;5045236;28;20048;-56
2022/12/08 09:24:32;;;;;;;2.30;1.48;;;19.10;44.90;;;;;;5046403;28;20118;-55
2022/12/08 09:27:00;;;;;;;2.63;0.88;;;19.10;44.10;;;;;;5046279;28;20131;-55
2022/12/08 09:29:27;;;;;;;1.27;0.85;;;19.20;43.90;;;;;;5045766;28;20041;-55
2022/12/08 09:31:55;;;;;;;3.22;1.33;;;19.30;43.70;;;;;;5046600;28;20768;-56
2022/12/08 09:34:22;;;;;;;3.17;1.67;;;19.30;43.60;;;;;;5045832;28;20041;-50
2022/12/08 09:36:51;;;;;;;13.38;0.80;;;19.30;43.40;;;;;;5045876;28;20597;-51
2022/12/08 09:39:18;;;;;;;3.22;1.77;;;19.40;43.40;;;;;;5033973;28;20052;-53
2022/12/08 09:41:49;;;;;;;1.17;0.93;;;19.40;43.20;;;;;;5039557;28;20114;-49
2022/12/08 09:44:56;;;;;;;1.25;0.55;;;19.50;43.00;;;;;;5045805;28;20045;-51
2022/12/08 09:47:27;;;;;;;2.30;0.95;;;19.60;42.80;;;;;;5041659;28;20049;-49
2022/12/08 09:50:02;;;;;;;1.63;0.70;;;19.50;42.90;;;;;;5045642;28;20079;-52
2022/12/08 09:52:35;;;;;;;3.67;1.10;;;19.60;42.80;;;;;;5045690;28;20062;-55
2022/12/08 09:55:11;;;;;;;0.95;0.50;;;19.70;42.80;;;;;;5045921;28;20154;-52
2022/12/08 09:57:38;;;;;;;1.70;0.55;;;19.70;42.80;;;;;;5045813;28;20052;-53
2022/12/08 10:00:07;;;;;;;0.40;0.30;;;19.70;42.70;;;;;;5045795;28;20120;-56
2022/12/08 10:02:35;;;;;;;1.20;0.57;;;19.80;42.70;;;;;;5032298;28;20083;-55
2022/12/08 10:05:02;;;;;;;0.70;0.40;;;19.90;42.60;;;;;;5046058;28;20041;-51
2022/12/08 10:07:38;;;;;;;1.92;0.82;;;19.90;42.40;;;;;;5049279;28;20126;-49
2022/12/08 10:10:14;;;;;;;2.58;0.35;;;20.00;42.30;;;;;;5049454;28;20051;-53
2022/12/08 10:12:47;;;;;;;4.40;1.05;;;20.00;42.00;;;;;;5049313;28;20033;-53
2022/12/08 10:15:37;;;;;;;1.70;0.82;;;20.10;42.10;;;;;;5049289;28;20055;-49
2022/12/08 10:18:12;;;;;;;1.55;0.70;;;20.10;41.90;;;;;;5048233;28;20091;-53
2022/12/08 10:20:42;;;;;;;3.42;1.10;;;20.10;41.70;;;;;;5048906;28;20111;-55
2022/12/08 10:23:21;;;;;;;0.98;0.45;;;20.20;41.80;;;;;;5049433;28;20058;-55
2022/12/08 10:25:50;;;;;;;0.75;0.60;;;20.20;41.50;;;;;;5047019;28;20072;-54
2022/12/08 10:28:18;;;;;;;1.40;0.50;;;20.30;41.60;;;;;;5045060;28;20089;-61
2022/12/08 10:30:45;;;;;;;2.97;0.70;;;20.30;41.30;;;;;;5047919;28;20072;-63
2022/12/08 10:33:16;;;;;;;0.88;0.40;;;20.40;41.20;;;;;;5046886;28;20064;-62
2022/12/08 10:35:46;;;;;;;2.00;0.50;;;20.50;41.20;;;;;;5048762;28;20528;-56
2022/12/08 10:38:23;;;;;;;0.80;0.50;;;20.50;41.00;;;;;;5049012;28;20044;-60
2022/12/08 10:40:52;;;;;;;0.98;0.57;;;20.60;40.80;;;;;;5044148;28;20443;-62
2022/12/08 10:43:22;;;;;;;1.55;0.40;;;20.60;40.60;;;;;;5049652;28;20037;-66
2022/12/08 10:45:49;;;;;;;1.33;0.85;;;20.60;40.50;;;;;;5049288;28;20052;-64
2022/12/08 10:48:19;;;;;;;0.95;0.52;;;20.60;40.30;;;;;;5048974;28;20136;-65
2022/12/08 10:50:53;;;;;;;1.35;0.70;;;20.60;40.30;;;;;;5049322;28;20083;-58
2022/12/08 10:53:23;;;;;;;4.22;0.60;;;20.60;39.90;;;;;;5048947;28;20550;-54
2022/12/08 10:55:52;;;;;;;2.25;0.60;;;20.60;40.00;;;;;;5049081;28;20052;-55
2022/12/08 10:58:27;;;;;;;1.08;0.98;;;20.60;40.00;;;;;;5048625;28;20048;-56
2022/12/08 11:00:57;;;;;;;1.13;0.65;;;20.70;40.00;;;;;;5049230;28;20048;-58
2022/12/08 11:03:29;;;;;;;0.73;0.38;;;20.60;40.00;;;;;;5048967;28;20091;-60
2022/12/08 11:05:58;;;;;;;5.47;0.55;;;20.60;39.90;;;;;;5049141;28;20103;-58
2022/12/08 11:08:28;;;;;;;4.47;0.70;;;20.60;40.00;;;;;;5047354;28;20488;-59
2022/12/08 11:10:55;;;;;;;1.55;0.77;;;20.70;39.90;;;;;;5049217;28;20069;-60
2022/12/08 11:13:25;;;;;;;4.03;0.82;;;20.60;39.80;;;;;;5048726;28;20397;-59
2022/12/08 11:15:54;;;;;;;2.05;0.73;;;20.70;39.70;;;;;;5047104;28;20059;-57
2022/12/08 11:18:39;;;;;;;1.58;0.90;;;20.70;39.60;;;;;;5048306;28;20044;-58
2022/12/08 11:21:09;;;;;;;0.38;0.35;;;20.70;39.60;;;;;;5049203;28;20041;-58
2022/12/08 11:23:40;;;;;;;1.33;0.60;;;20.70;39.70;;;;;;5049001;28;20087;-59
2022/12/08 11:26:17;;;;;;;2.22;0.55;;;20.70;39.70;;;;;;5048645;28;20048;-59
2022/12/08 11:28:44;;;;;;;1.88;0.82;;;20.70;39.60;;;;;;5047856;28;20569;-60
2022/12/08 11:31:22;;;;;;;1.58;1.48;;;20.70;39.70;;;;;;5049312;28;20613;-59
2022/12/08 11:33:51;;;;;;;2.85;0.80;;;20.70;39.40;;;;;;5045557;28;20107;-61
2022/12/08 11:36:22;;;;;;;4.07;0.45;;;20.70;39.50;;;;;;5046844;28;20068;-62
2022/12/08 11:38:55;;;;;;;4.57;0.77;;;20.70;39.50;;;;;;5048407;28;20072;-61
2022/12/08 11:41:27;;;;;;;2.10;0.98;;;20.70;39.60;;;;;;5043221;28;20033;-59
2022/12/08 11:44:01;;;;;;;0.60;0.52;;;20.70;39.50;;;;;;5051664;28;20099;-70
2022/12/08 11:46:34;;;;;;;1.38;0.52;;;20.70;39.40;;;;;;5050511;28;20053;-67
2022/12/08 11:49:04;;;;;;;1.92;0.88;;;20.70;39.40;;;;;;5048325;28;20061;-67
2022/12/08 11:51:33;;;;;;;2.63;0.88;;;20.70;39.50;;;;;;5047843;28;20094;-65
2022/12/08 11:54:15;;;;;;;9.05;0.65;;;20.80;39.40;;;;;;5048051;28;20056;-66
2022/12/08 11:56:45;;;;;;;5.18;1.00;;;20.80;39.30;;;;;;5047717;28;20040;-63
2022/12/08 11:59:20;;;;;;;3.88;0.70;;;20.80;40.00;;;;;;5047357;28;20572;-64
2022/12/08 12:01:47;;;;;;;5.95;0.60;;;20.80;40.40;;;;;;5047285;28;20045;-64
2022/12/08 12:04:22;;;;;;;7.32;0.70;;;20.80;40.50;;;;;;5047399;28;20120;-66
2022/12/08 12:07:24;;;;;;;1.92;0.50;;;20.80;40.60;;;;;;5047315;28;20041;-66
2022/12/08 12:10:21;;;;;;;4.10;1.30;;;20.70;41.30;;;;;;5053679;28;20090;-73
2022/12/08 12:13:04;;;;;;;3.83;0.85;;;20.60;42.60;;;;;;5056586;28;20619;-73
2022/12/08 12:16:07;;;;;;;5.05;0.70;;;20.50;43.60;;;;;;5050385;28;20044;-74
2022/12/08 12:18:39;;;;;;;5.00;0.85;;;20.50;44.90;;;;;;5051803;28;20128;-73
2022/12/08 12:21:11;;;;;;;11.20;1.00;;;20.40;44.80;;;;;;5052174;28;20433;-73
2022/12/08 12:23:42;;;;;;;10.93;1.13;;;20.40;45.30;;;;;;5053426;28;20048;-72
2022/12/08 12:26:19;;;;;;;5.72;0.95;;;20.40;45.50;;;;;;5053115;28;20041;-73
2022/12/08 12:28:51;;;;;;;2.05;0.68;;;20.40;45.60;;;;;;5050391;28;20162;-73
2022/12/08 12:31:22;;;;;;;2.92;1.23;;;20.30;46.20;;;;;;5050340;28;20131;-72
2022/12/08 12:33:51;;;;;;;6.55;0.88;;;20.30;45.60;;;;;;5050751;28;20068;-72
2022/12/08 12:36:18;;;;;;;4.03;0.88;;;20.30;46.20;;;;;;5049894;28;20802;-72
2022/12/08 12:39:05;;;;;;;5.70;0.65;;;20.30;45.60;;;;;;5051357;28;20045;-71
2022/12/08 12:41:35;;;;;;;;;;;20.20;45.50;;;;;;5045848;28;20056;-72
2022/12/08 12:44:35;;;;;;;1.17;0.65;;;20.20;45.30;;;;;;5049162;28;20393;-72
2022/12/08 12:47:04;;;;;;;4.53;1.17;;;20.20;45.40;;;;;;5048388;28;20041;-72
2022/12/08 12:50:04;;;;;;;0.73;0.55;;;20.10;45.30;;;;;;5050797;28;20049;-72
2022/12/08 12:52:45;;;;;;;3.72;0.73;;;20.20;45.10;;;;;;5049827;28;20126;-72
2022/12/08 12:55:51;;;;;;;1.77;1.45;;;20.10;45.00;;;;;;5050244;28;20048;-72
2022/12/08 12:58:53;;;;;;;5.53;2.15;;;20.10;44.90;;;;;;5049359;28;20854;-72
2022/12/08 13:02:01;;;;;;;4.40;1.00;;;20.10;44.80;;;;;;5049575;28;20048;-71
2022/12/08 13:04:35;;;;;;;1.02;0.40;;;20.00;44.70;;;;;;5049615;28;20048;-71
2022/12/08 13:07:02;;;;;;;2.63;0.75;;;20.00;44.70;;;;;;5049899;28;20068;-71
2022/12/08 13:09:33;;;;;;;3.58;0.65;;;20.00;44.60;;;;;;5049299;28;20040;-74
2022/12/08 13:12:09;;;;;;;1.85;1.15;;;20.00;45.20;;;;;;5049591;28;20057;-72